KTIX/TIX METAR and TAF weather

Enter ICAO airport designator
Station Type Date Time Source
KTIX METAR 2021/09/25 12:50 UTC NOAA

KTIX 251250Z 00000KT 7SM SCT080 27/24 A3004


Station Type Date Time Source
KTIX Decoded METAR 2021/09/25 12:50 UTC NOAA

Titusville, FL, United States (KTIX) 28-31N 080-48W
Sep 25, 2021 - 08:50 AM EDT / 2021.09.25 1250 UTC
Wind: Calm:0
Visibility: 7 mile(s):0
Sky conditions: partly cloudy
Temperature: 80 F (27 C)
Dew Point: 75 F (24 C)
Relative Humidity: 83%
Pressure (altimeter): 30.04 in. Hg (1017 hPa)
ob: KTIX 251250Z 00000KT 7SM SCT080 27/24 A3004
cycle: 13

Station Type Date Time Source
KTIX TAF 2021/09/25 12:30 UTC NOAA

TAF KTIX 251127Z 2512/2612 02004KT P6SM FEW030 FEW060
FM251400 03008KT P6SM VCSH SCT035
FM251700 06011KT P6SM FEW045
FM260000 04004KT P6SM SKC

Example: see airport list